Time;durP1;ratioP1;P1;durP2;ratioP2;P2;SDS_P1;SDS_P2;PMS_P1;PMS_P2;Temp;Humidity;BMP_temperature;BMP_pressure;BME280_temperature;BME280_humidity;BME280_pressure;Samples;Min_cycle;Max_cycle;Signal;HPM_P1;HPM_P2
2022/08/09 00:00:30;;;;;;;;;5.33;5.33;;;;;21.99;100.00;101919.56;5016845;28;45828;-82
2022/08/09 00:03:00;;;;;;;;;7.67;6.67;;;;;21.77;100.00;101877.66;5015071;28;46821;-80
2022/08/09 00:05:26;;;;;;;;;3.00;3.00;;;;;21.71;100.00;101870.28;5013554;28;45427;-77
2022/08/09 00:08:10;;;;;;;;;5.67;5.67;;;;;21.88;100.00;101903.78;5013854;28;45509;-79
2022/08/09 00:10:37;;;;;;;;;4.67;4.67;;;;;21.89;100.00;101914.72;5015913;28;45708;-83
2022/08/09 00:13:06;;;;;;;;;7.33;7.33;;;;;21.60;100.00;101872.97;5015965;28;45548;-82
2022/08/09 00:15:33;;;;;;;;;5.00;3.67;;;;;21.57;100.00;101859.50;5014747;28;45346;-79
2022/08/09 00:17:58;;;;;;;;;4.00;4.00;;;;;21.64;100.00;101878.84;5012892;28;45376;-79
2022/08/09 00:20:32;;;;;;;;;5.00;5.00;;;;;21.43;100.00;101846.97;5013455;28;45482;-78
2022/08/09 00:22:57;;;;;;;;;7.00;7.00;;;;;21.47;100.00;101845.34;5011856;28;46068;-82
2022/08/09 00:25:26;;;;;;;;;4.00;4.00;;;;;21.58;100.00;101877.94;5015197;28;45578;-83
2022/08/09 00:27:52;;;;;;;;;5.67;5.67;;;;;21.63;100.00;101891.97;5014540;28;45517;-81
2022/08/09 00:30:18;;;;;;;;;6.33;6.00;;;;;21.30;100.00;101837.84;5014347;28;45504;-79
2022/08/09 00:32:44;;;;;;;;;5.00;4.00;;;;;21.52;100.00;101888.16;5016718;28;45458;-82
2022/08/09 00:35:09;;;;;;;;;6.33;6.33;;;;;21.47;100.00;101893.66;5014106;28;45449;-82
2022/08/09 00:37:35;;;;;;;;;4.00;4.00;;;;;21.45;100.00;101897.78;5014988;28;45243;-81
2022/08/09 00:40:01;;;;;;;;;4.33;4.33;;;;;21.22;100.00;101854.16;5016336;28;46099;-79
2022/08/09 00:42:28;;;;;;;;;6.33;5.67;;;;;21.45;100.00;101883.81;5014883;28;47104;-82
2022/08/09 00:44:54;;;;;;;;;6.33;6.33;;;;;21.22;100.00;101856.97;5020923;28;45391;-81
2022/08/09 00:47:21;;;;;;;;;5.33;4.67;;;;;21.20;100.00;101862.78;5027037;28;45510;-81
2022/08/09 00:49:47;;;;;;;;;4.33;4.33;;;;;21.18;100.00;101856.59;5017604;28;46070;-80
2022/08/09 00:52:12;;;;;;;;;4.00;3.67;;;;;21.33;100.00;101884.78;5023042;28;46881;-78
2022/08/09 00:54:38;;;;;;;;;6.33;5.33;;;;;21.32;100.00;101891.44;5017651;28;45451;-82
2022/08/09 00:57:04;;;;;;;;;5.00;5.00;;;;;21.13;100.00;101870.47;5012273;28;45467;-82
2022/08/09 00:59:29;;;;;;;;;4.33;4.33;;;;;21.12;100.00;101865.97;5015116;28;45886;-80
2022/08/09 01:01:59;;;;;;;;;4.00;4.00;;;;;21.18;100.00;101881.69;5013203;28;48048;-80
2022/08/09 01:04:36;;;;;;;;;4.00;4.00;;;;;21.22;100.00;101894.06;5022618;28;45597;-78
2022/08/09 01:07:39;;;;;;;;;4.33;4.33;;;;;21.15;100.00;101890.59;5026261;28;45569;-80
2022/08/09 01:10:36;;;;;;;;;6.67;4.33;;;;;20.97;100.00;101873.00;5016006;28;46261;-79
2022/08/09 01:13:04;;;;;;;;;5.67;5.67;;;;;21.09;100.00;101894.38;5040902;28;45513;-78
2022/08/09 01:15:38;;;;;;;;;6.33;6.33;;;;;20.85;100.00;101860.22;5033496;28;45823;-78
2022/08/09 01:18:09;;;;;;;;;4.00;4.00;;;;;20.99;100.00;101893.09;5031459;28;45531;-82
2022/08/09 01:21:12;;;;;;;;;6.00;6.00;;;;;21.02;100.00;101899.25;5019728;28;45771;-83
2022/08/09 01:24:03;;;;;;;;;5.67;4.00;;;;;20.99;100.00;101893.09;5029580;28;45455;-82
2022/08/09 01:26:56;;;;;;;;;3.33;3.33;;;;;20.93;100.00;101893.28;5024565;28;45512;-78
2022/08/09 01:29:37;;;;;;;;;2.00;2.00;;;;;20.80;100.00;101889.69;5014628;28;45432;-81
2022/08/09 01:32:05;;;;;;;;;4.00;4.00;;;;;20.82;100.00;101903.38;5032682;28;45813;-82
2022/08/09 01:34:34;;;;;;;;;4.67;4.67;;;;;20.61;100.00;101866.72;5033709;28;45796;-83
2022/08/09 01:37:10;;;;;;;;;4.67;4.67;;;;;20.53;100.00;101853.19;5034424;28;45865;-83
2022/08/09 01:39:45;;;;;;;;;5.00;5.00;;;;;20.61;100.00;101882.59;5034644;28;45429;-79
2022/08/09 01:42:11;;;;;;;;;7.67;6.67;;;;;20.47;100.00;101865.31;5012059;28;45383;-82
2022/08/09 01:44:38;;;;;;;;;5.67;5.67;;;;;20.34;100.00;101840.53;5035985;28;46889;-82
2022/08/09 01:47:07;;;;;;;;;7.67;5.00;;;;;20.62;100.00;101892.66;5024635;28;45431;-81
2022/08/09 01:49:36;;;;;;;;;2.00;2.00;;;;;20.61;100.00;101893.72;5040860;28;45577;-82
2022/08/09 01:52:14;;;;;;;;;5.00;4.33;;;;;20.58;100.00;101894.22;5029640;28;45888;-78
2022/08/09 01:54:55;;;;;;;;;;;;;;;;;;;;;
2022/08/09 01:57:36;;;;;;;;;5.67;4.67;;;;;20.25;100.00;101857.66;5023652;28;72034;-77
2022/08/09 02:00:05;;;;;;;;;6.00;4.67;;;;;20.36;100.00;101875.41;5005220;28;45649;-78
2022/08/09 02:02:34;;;;;;;;;5.00;5.00;;;;;20.22;100.00;101857.28;5016673;28;46380;-82
2022/08/09 02:05:03;;;;;;;;;6.00;5.00;;;;;20.38;100.00;101880.75;5023205;28;46917;-78
2022/08/09 02:07:31;;;;;;;;;6.00;5.67;;;;;20.42;100.00;101887.53;5016568;28;45562;-76
2022/08/09 02:10:06;;;;;;;;;11.00;7.33;;;;;20.31;100.00;101877.25;5018210;28;45503;-77
2022/08/09 02:12:36;;;;;;;;;6.67;6.33;;;;;20.40;100.00;101895.25;5018334;28;45732;-77
2022/08/09 02:15:08;;;;;;;;;5.33;5.33;;;;;20.27;100.00;101883.31;5038333;28;46944;-83
2022/08/09 02:17:37;;;;;;;;;5.33;5.33;;;;;20.24;100.00;101871.78;5019422;28;44845;-78
2022/08/09 02:20:03;;;;;;;;;6.67;5.33;;;;;20.22;100.00;101860.06;5015201;28;45454;-79
2022/08/09 02:22:44;;;;;;;;;5.00;5.00;;;;;20.36;100.00;101894.91;5016663;28;45569;-78
2022/08/09 02:25:19;;;;;;;;;5.00;4.33;;;;;20.19;100.00;101864.19;5016533;28;45419;-79
2022/08/09 02:28:10;;;;;;;;;4.00;4.00;;;;;20.25;100.00;101888.28;5012053;28;45622;-78
2022/08/09 02:30:50;;;;;;;;;5.67;4.33;;;;;20.19;100.00;101882.84;5039465;28;45855;-80
2022/08/09 02:33:25;;;;;;;;;7.00;5.00;;;;;20.18;100.00;101882.00;5042106;28;45508;-83
2022/08/09 02:35:57;;;;;;;;;3.00;3.00;;;;;20.23;100.00;101896.03;5034666;28;46006;-82
2022/08/09 02:38:32;;;;;;;;;7.33;7.00;;;;;20.22;100.00;101888.75;5026321;28;45320;-81
2022/08/09 02:41:12;;;;;;;;;4.00;4.00;;;;;20.07;100.00;101868.94;5020079;28;45803;-81
2022/08/09 02:43:41;;;;;;;;;4.00;4.00;;;;;19.96;100.00;101855.91;5026766;28;46323;-80
2022/08/09 02:46:15;;;;;;;;;4.67;4.67;;;;;19.92;100.00;101838.81;5030331;28;45693;-81
2022/08/09 02:48:44;;;;;;;;;6.00;6.00;;;;;20.17;100.00;101894.22;5043970;28;45435;-81
2022/08/09 02:51:17;;;;;;;;;5.33;4.00;;;;;20.13;100.00;101884.66;5033962;28;45856;-81
2022/08/09 02:53:50;;;;;;;;;4.67;4.00;;;;;20.11;100.00;101878.50;5032883;28;45957;-81
2022/08/09 02:56:25;;;;;;;;;5.33;4.33;;;;;20.10;100.00;101883.25;5024813;28;47344;-80
2022/08/09 02:58:56;;;;;;;;;4.00;4.00;;;;;19.66;100.00;101838.22;5030606;28;45368;-78
2022/08/09 03:01:25;;;;;;;;;7.00;5.00;;;;;20.02;100.00;101888.34;5033730;28;45533;-81
2022/08/09 03:03:53;;;;;;;;;4.00;4.00;;;;;19.89;100.00;101870.78;5049450;28;46027;-82
2022/08/09 03:06:20;;;;;;;;;7.67;6.33;;;;;19.90;100.00;101875.25;5027874;28;45422;-80
2022/08/09 03:08:48;;;;;;;;;6.33;6.33;;;;;19.95;100.00;101888.44;5032866;28;45527;-81
2022/08/09 03:11:19;;;;;;;;;4.33;4.33;;;;;19.92;100.00;101900.94;5033960;28;45574;-79
2022/08/09 03:13:52;;;;;;;;;20.00;18.33;;;;;19.63;100.00;101849.00;5027067;28;45660;-79
2022/08/09 03:16:19;;;;;;;;;6.00;6.00;;;;;19.74;100.00;101864.84;5013690;28;48099;-81
2022/08/09 03:18:46;;;;;;;;;5.00;4.33;;;;;19.61;100.00;101848.38;5015878;28;45412;-80
2022/08/09 03:21:20;;;;;;;;;15.00;11.00;;;;;19.62;100.00;101855.66;5018361;28;45573;-83
2022/08/09 03:23:48;;;;;;;;;4.00;4.00;;;;;19.80;100.00;101894.50;5003988;28;45309;-82
2022/08/09 03:26:17;;;;;;;;;6.00;6.00;;;;;19.81;100.00;101896.22;5017781;28;47699;-82
2022/08/09 03:28:46;;;;;;;;;8.67;6.33;;;;;19.55;100.00;101848.28;5017127;28;45542;-82
2022/08/09 03:31:12;;;;;;;;;4.33;4.00;;;;;19.55;100.00;101845.50;5017010;28;44812;-83
2022/08/09 03:33:42;;;;;;;;;8.00;8.00;;;;;19.54;100.00;101854.91;5015903;28;46021;-81
2022/08/09 03:36:09;;;;;;;;;9.33;9.33;;;;;19.60;100.00;101857.84;5014863;28;46736;-81
2022/08/09 03:38:37;;;;;;;;;6.33;6.33;;;;;19.48;100.00;101850.34;5013791;28;45525;-83
2022/08/09 03:41:21;;;;;;;;;8.00;6.00;;;;;19.66;100.00;101888.31;5017104;28;45548;-83
2022/08/09 03:43:47;;;;;;;;;5.00;5.00;;;;;19.68;100.00;101888.06;5014025;28;45477;-77
2022/08/09 03:46:16;;;;;;;;;7.33;5.67;;;;;19.66;100.00;101885.53;5013671;28;46371;-77
2022/08/09 03:48:44;;;;;;;;;6.00;6.00;;;;;19.66;100.00;101893.06;5012543;28;45447;-77
2022/08/09 03:51:12;;;;;;;;;8.00;6.67;;;;;19.35;100.00;101845.00;5028178;28;45383;-77
2022/08/09 03:53:39;;;;;;;;;9.67;6.00;;;;;19.50;100.00;101867.63;5012530;28;46814;-77
2022/08/09 03:56:07;;;;;;;;;7.00;6.00;;;;;19.55;100.00;101884.44;5012971;28;46636;-77
2022/08/09 03:58:33;;;;;;;;;7.33;6.33;;;;;19.53;100.00;101880.22;5012054;28;45435;-77
2022/08/09 04:00:59;;;;;;;;;8.00;5.00;;;;;19.54;100.00;101879.97;5011457;28;45674;-77
2022/08/09 04:03:26;;;;;;;;;9.00;7.33;;;;;19.49;100.00;101871.50;5012021;28;45478;-78
2022/08/09 04:05:52;;;;;;;;;7.67;6.33;;;;;19.30;100.00;101842.94;5011578;28;46294;-76
2022/08/09 04:08:18;;;;;;;;;8.00;7.00;;;;;19.34;100.00;101860.84;5011604;28;46030;-77
2022/08/09 04:10:44;;;;;;;;;6.33;6.33;;;;;19.52;100.00;101901.63;5012993;28;45650;-77
2022/08/09 04:13:12;;;;;;;;;8.67;6.33;;;;;19.11;100.00;101833.00;5024376;28;46479;-78
2022/08/09 04:15:43;;;;;;;;;7.00;7.00;;;;;19.16;100.00;101855.38;5013491;28;45720;-77
2022/08/09 04:18:18;;;;;;;;;7.00;4.67;;;;;19.49;100.00;101912.38;5027154;28;45799;-78
2022/08/09 04:20:50;;;;;;;;;6.67;5.00;;;;;19.28;100.00;101877.63;5032188;28;45749;-77
2022/08/09 04:23:16;;;;;;;;;4.67;4.67;;;;;19.45;100.00;101914.81;5048478;28;45669;-78
2022/08/09 04:25:44;;;;;;;;;11.33;8.33;;;;;19.37;100.00;101893.75;5034518;28;46027;-78
2022/08/09 04:28:10;;;;;;;;;8.00;6.33;;;;;19.13;100.00;101853.94;5029101;28;45766;-77
2022/08/09 04:30:36;;;;;;;;;4.33;4.33;;;;;19.41;100.00;101889.38;5023703;28;45705;-78
2022/08/09 04:33:01;;;;;;;;;8.00;5.00;;;;;19.41;100.00;101894.09;5031257;28;45438;-77
2022/08/09 04:35:27;;;;;;;;;10.33;6.67;;;;;19.47;100.00;101900.66;5028539;28;45761;-78
2022/08/09 04:37:53;;;;;;;;;12.00;7.67;;;;;19.43;100.00;101903.09;5032948;28;45392;-76
2022/08/09 04:40:19;;;;;;;;;8.00;5.33;;;;;19.28;100.00;101881.28;5029872;28;45338;-80
2022/08/09 04:42:45;;;;;;;;;7.00;7.00;;;;;19.24;100.00;101863.38;5023961;28;45851;-77
2022/08/09 04:45:11;;;;;;;;;7.67;5.33;;;;;19.63;100.00;101913.00;5037285;28;45383;-81
2022/08/09 04:47:36;;;;;;;;;18.67;13.33;;;;;19.60;100.00;101880.94;5043611;28;45839;-78
2022/08/09 04:50:02;;;;;;;;;17.00;14.67;;;;;19.70;100.00;101875.63;5029781;28;45864;-78
2022/08/09 04:52:28;;;;;;;;;7.33;7.33;;;;;19.96;100.00;101894.88;5017884;28;47175;-78
2022/08/09 04:54:58;;;;;;;;;11.67;8.67;;;;;20.14;100.00;101891.94;5030413;28;45488;-79
2022/08/09 04:57:25;;;;;;;;;6.33;6.33;;;;;20.35;100.00;101893.22;5021076;28;45442;-78
2022/08/09 04:59:52;;;;;;;;;8.67;5.67;;;;;20.52;100.00;101870.97;5026759;28;45352;-76
2022/08/09 05:02:18;;;;;;;;;12.67;7.67;;;;;21.08;100.00;101917.81;5032421;28;45768;-79
2022/08/09 05:04:43;;;;;;;;;7.33;6.67;;;;;21.45;100.00;101914.53;5029894;28;48124;-78
2022/08/09 05:07:09;;;;;;;;;10.33;7.00;;;;;21.55;100.00;101878.44;5029957;28;45637;-78
2022/08/09 05:09:34;;;;;;;;;7.33;6.33;;;;;21.94;100.00;101891.59;5019522;28;45555;-82
2022/08/09 05:12:00;;;;;;;;;9.00;7.00;;;;;22.46;100.00;101915.50;5025819;28;45917;-81
2022/08/09 05:14:25;;;;;;;;;8.33;5.67;;;;;22.81;100.00;101900.25;5024095;28;46042;-79
2022/08/09 05:16:58;;;;;;;;;4.67;4.67;;;;;23.12;100.00;101900.59;5014951;28;45543;-84
2022/08/09 05:19:23;;;;;;;;;5.67;4.67;;;;;23.57;100.00;101882.47;5015114;28;45487;-77
2022/08/09 05:21:49;;;;;;;;;7.33;5.00;;;;;23.99;100.00;101895.66;5014407;28;45701;-78
2022/08/09 05:24:14;;;;;;;;;9.00;4.00;;;;;24.32;100.00;101902.00;5024716;28;47104;-78
2022/08/09 05:26:40;;;;;;;;;11.33;7.00;;;;;24.47;100.00;101868.38;5030555;28;45899;-78
2022/08/09 05:29:06;;;;;;;;;8.33;7.67;;;;;24.96;100.00;101916.81;5013681;28;45293;-77
2022/08/09 05:31:31;;;;;;;;;5.67;4.00;;;;;25.08;100.00;101896.91;5027373;28;44856;-81
2022/08/09 05:33:57;;;;;;;;;8.00;6.67;;;;;25.46;100.00;101898.34;5036758;28;47086;-80
2022/08/09 05:36:22;;;;;;;;;7.00;6.00;;;;;25.94;100.00;101912.03;5036941;28;45975;-77
2022/08/09 05:38:47;;;;;;;;;6.00;6.00;;;;;26.34;100.00;101903.78;5033397;28;45644;-76
2022/08/09 05:41:13;;;;;;;;;5.00;3.00;;;;;26.87;99.22;101922.97;5032900;28;45549;-78
2022/08/09 05:43:38;;;;;;;;;5.33;5.33;;;;;27.21;94.19;101896.81;5021843;28;46200;-78
2022/08/09 05:46:04;;;;;;;;;6.33;6.33;;;;;27.72;88.84;101893.56;5012707;28;45755;-76
2022/08/09 05:48:30;;;;;;;;;6.67;6.33;;;;;28.24;82.78;101896.69;5014164;28;45518;-78
2022/08/09 05:50:55;;;;;;;;;4.67;4.33;;;;;28.65;77.73;101917.91;5013989;28;45381;-77
2022/08/09 05:53:21;;;;;;;;;5.00;5.00;;;;;28.88;73.91;101904.88;5013850;28;46114;-78
2022/08/09 05:55:47;;;;;;;;;7.67;6.00;;;;;29.40;70.52;101934.03;5013263;28;45676;-81
2022/08/09 05:58:12;;;;;;;;;5.67;5.33;;;;;29.57;66.57;101919.31;5023491;28;45423;-78
2022/08/09 06:00:38;;;;;;;;;8.33;6.00;;;;;29.89;64.17;101908.31;5025346;28;45407;-78
2022/08/09 06:03:03;;;;;;;;;6.33;6.33;;;;;30.25;61.97;101907.56;5014530;28;46991;-78
2022/08/09 06:05:31;;;;;;;;;6.00;6.00;;;;;30.70;60.16;101912.59;5022003;28;45784;-77
2022/08/09 06:07:57;;;;;;;;;6.25;4.25;;;;;31.09;56.92;101906.28;5034760;28;45503;-79
2022/08/09 06:10:36;;;;;;;;;8.25;6.00;;;;;31.56;53.86;101933.50;5032480;28;46054;-80
2022/08/09 06:13:11;;;;;;;;;6.00;6.00;;;;;31.59;52.65;101915.84;5048694;28;47292;-81
2022/08/09 06:15:37;;;;;;;;;5.00;4.25;;;;;32.02;51.64;101935.97;5013075;28;45997;-80
2022/08/09 06:18:03;;;;;;;;;3.75;3.75;;;;;32.35;49.57;101937.59;5021599;28;45415;-80
2022/08/09 06:20:29;;;;;;;;;7.25;4.25;;;;;32.65;48.54;101920.78;5014303;28;45904;-80
2022/08/09 06:22:55;;;;;;;;;6.00;6.00;;;;;33.08;46.99;101926.53;5014628;28;46197;-80
2022/08/09 06:25:20;;;;;;;;;6.00;4.00;;;;;33.49;45.21;101943.44;5012791;28;45780;-81
2022/08/09 06:27:46;;;;;;;;;6.00;5.00;;;;;33.67;43.82;101944.22;5012120;28;45567;-80
2022/08/09 06:30:11;;;;;;;;;6.00;5.00;;;;;33.89;43.34;101948.91;5018884;28;45622;-79
2022/08/09 06:32:37;;;;;;;;;2.75;2.75;;;;;34.28;42.23;101955.47;5019382;28;45868;-79
2022/08/09 06:35:03;;;;;;;;;5.50;4.00;;;;;34.59;41.03;101931.50;5033009;28;45399;-80
2022/08/09 06:37:28;;;;;;;;;7.00;7.00;;;;;34.97;39.69;101939.97;5032931;28;45803;-81
2022/08/09 06:39:54;;;;;;;;;6.25;5.00;;;;;35.34;38.63;101948.72;5020398;28;45405;-77
2022/08/09 06:42:20;;;;;;;;;6.50;4.50;;;;;35.59;37.79;101951.69;5019308;28;46250;-78
2022/08/09 06:44:46;;;;;;;;;8.00;6.25;;;;;35.96;37.02;101954.66;5032562;28;46326;-76
2022/08/09 06:47:12;;;;;;;;;5.50;4.00;;;;;36.10;36.41;101934.31;5031865;28;45558;-76
2022/08/09 06:49:38;;;;;;;;;6.75;5.75;;;;;36.33;35.68;101951.00;5047679;28;45924;-77
2022/08/09 06:52:04;;;;;;;;;5.50;4.50;;;;;36.43;35.60;101939.09;5031889;28;45450;-76
2022/08/09 06:54:30;;;;;;;;;4.50;4.00;;;;;36.71;34.65;101938.34;5030206;28;45833;-78
2022/08/09 06:56:55;;;;;;;;;2.25;2.25;;;;;37.11;34.17;101954.72;5032058;28;45442;-79
2022/08/09 06:59:21;;;;;;;;;7.00;5.00;;;;;37.33;33.14;101953.34;5030479;28;46051;-77
2022/08/09 07:01:47;;;;;;;;;5.75;5.00;;;;;37.54;33.22;101938.00;5033309;28;45760;-80
2022/08/09 07:04:12;;;;;;;;;5.00;5.00;;;;;38.21;32.42;101948.81;5025786;28;45448;-81
2022/08/09 07:06:38;;;;;;;;;7.50;5.00;;;;;38.74;31.26;101966.50;5026831;28;45588;-81
2022/08/09 07:09:03;;;;;;;;;5.50;5.50;;;;;38.82;30.66;101959.72;5031815;28;46858;-81
2022/08/09 07:11:29;;;;;;;;;10.00;7.33;;;;;38.90;30.43;101971.38;5032892;28;45910;-79
2022/08/09 07:13:54;;;;;;;;;6.25;5.00;;;;;38.68;30.30;101956.53;5025308;28;45728;-81
2022/08/09 07:16:20;;;;;;;;;5.50;4.00;;;;;38.66;29.91;101954.03;5014898;28;46357;-82
2022/08/09 07:18:45;;;;;;;;;6.50;4.00;;;;;39.01;29.22;101969.56;5020872;28;45477;-82
2022/08/09 07:21:11;;;;;;;;;6.00;6.00;;;;;39.38;29.76;101972.84;5033578;28;46011;-80
2022/08/09 07:23:36;;;;;;;;;5.00;5.00;;;;;39.87;28.51;101968.50;5026217;28;45712;-81
2022/08/09 07:26:02;;;;;;;;;5.75;5.75;;;;;40.14;28.43;101971.44;5013603;28;45490;-83
2022/08/09 07:28:30;;;;;;;;;5.25;4.50;;;;;40.42;27.50;101961.63;5015069;28;45632;-82
2022/08/09 07:30:56;;;;;;;;;6.00;5.25;;;;;40.86;27.21;101971.78;5012954;28;48189;-82
2022/08/09 07:33:21;;;;;;;;;4.25;4.25;;;;;41.20;26.41;101974.69;5016458;28;45401;-82
2022/08/09 07:35:47;;;;;;;;;5.00;5.00;;;;;40.85;26.03;101953.66;5025004;28;45424;-79
2022/08/09 07:38:12;;;;;;;;;6.00;3.25;;;;;40.71;26.33;101967.88;5032158;28;45493;-82
2022/08/09 07:40:38;;;;;;;;;4.25;4.25;;;;;40.76;26.62;101968.34;5032608;28;45367;-83
2022/08/09 07:43:03;;;;;;;;;4.25;4.25;;;;;40.75;25.89;101937.09;5028717;28;45949;-81
2022/08/09 07:45:30;;;;;;;;;6.00;5.00;;;;;40.96;25.86;101935.75;5024515;28;45373;-82
2022/08/09 07:47:57;;;;;;;;;6.00;5.00;;;;;41.36;25.48;101942.84;5021077;28;46115;-82
2022/08/09 07:50:26;;;;;;;;;4.00;4.00;;;;;41.39;24.98;101948.66;5036540;28;48275;-82
2022/08/09 07:52:52;;;;;;;;;5.00;5.00;;;;;41.29;25.21;101961.69;5035170;28;44752;-82
2022/08/09 07:55:18;;;;;;;;;4.00;2.75;;;;;40.98;25.47;101922.63;5049520;28;45262;-81
2022/08/09 07:57:46;;;;;;;;;6.50;6.50;;;;;41.39;25.25;101959.34;5043355;28;45120;-82
2022/08/09 08:00:12;;;;;;;;;4.00;4.00;;;;;41.77;25.22;101969.66;5027356;28;45981;-82
2022/08/09 08:02:38;;;;;;;;;5.00;4.00;;;;;42.01;24.79;101955.06;5034107;28;45414;-81
2022/08/09 08:05:03;;;;;;;;;6.00;4.25;;;;;42.16;24.00;101956.88;5034642;28;45378;-81
2022/08/09 08:07:29;;;;;;;;;4.25;4.25;;;;;42.48;24.12;101959.97;5033215;28;46444;-83
2022/08/09 08:09:55;;;;;;;;;5.00;5.00;;;;;42.51;23.64;101946.81;5045289;28;46952;-81
2022/08/09 08:12:21;;;;;;;;;7.00;6.25;;;;;42.77;23.45;101956.47;5040268;28;45870;-80
2022/08/09 08:14:46;;;;;;;;;4.00;4.00;;;;;42.89;23.37;101963.97;5038292;28;45774;-82
2022/08/09 08:17:12;;;;;;;;;6.33;5.33;;;;;43.09;23.43;101952.94;5030429;28;44793;-81
2022/08/09 08:19:38;;;;;;;;;4.75;4.75;;;;;43.55;22.80;101963.84;5028725;28;46760;-81
2022/08/09 08:22:03;;;;;;;;;4.00;4.00;;;;;43.79;22.60;101944.06;5029085;28;45569;-81
2022/08/09 08:24:29;;;;;;;;;3.50;3.50;;;;;44.31;22.66;101944.53;5029492;28;45380;-82
2022/08/09 08:26:55;;;;;;;;;4.50;4.25;;;;;44.63;21.44;101955.28;5017058;28;45548;-82
2022/08/09 08:29:21;;;;;;;;;4.00;3.00;;;;;44.69;21.33;101942.03;5027810;28;47890;-82
2022/08/09 08:31:47;;;;;;;;;4.67;4.00;;;;;44.48;21.09;101947.81;5029604;28;44865;-81
2022/08/09 08:34:12;;;;;;;;;5.00;4.00;;;;;44.25;21.43;101952.81;5041757;28;45532;-82
2022/08/09 08:36:37;;;;;;;;;5.33;4.00;;;;;44.42;21.84;101942.47;5043800;28;45294;-81
2022/08/09 08:39:03;;;;;;;;;5.33;4.67;;;;;44.63;20.83;101925.50;5030327;28;45581;-79
2022/08/09 08:41:30;;;;;;;;;7.33;7.33;;;;;44.89;20.95;101974.19;5037860;28;44828;-82
2022/08/09 08:44:00;;;;;;;;;5.00;5.00;;;;;44.78;20.83;101965.56;5037063;28;44745;-83
2022/08/09 08:46:33;;;;;;;;;5.33;4.33;;;;;44.59;20.51;101942.84;5038246;28;46236;-81
2022/08/09 08:49:00;;;;;;;;;5.25;3.75;;;;;44.53;20.52;101968.47;5027690;28;45501;-82
2022/08/09 08:51:25;;;;;;;;;7.33;5.67;;;;;44.49;20.71;101947.41;5043311;28;45698;-82
2022/08/09 08:53:52;;;;;;;;;5.67;5.00;;;;;44.73;20.41;101954.38;5030690;28;45306;-81
2022/08/09 08:56:19;;;;;;;;;4.00;4.00;;;;;44.91;20.38;101947.72;5033477;28;45503;-77
2022/08/09 08:58:45;;;;;;;;;5.00;5.00;;;;;45.05;20.13;101958.44;5028915;28;45406;-80
2022/08/09 09:01:12;;;;;;;;;3.00;3.00;;;;;45.13;20.13;101963.78;5030139;28;45208;-80
2022/08/09 09:03:40;;;;;;;;;4.67;4.67;;;;;45.17;20.34;101951.34;5029131;28;45349;-80
2022/08/09 09:06:06;;;;;;;;;5.33;4.67;;;;;45.63;19.94;101947.38;5040533;28;45790;-81
2022/08/09 09:08:35;;;;;;;;;7.00;5.33;;;;;45.67;19.57;101936.59;5037851;28;45627;-81
2022/08/09 09:11:03;;;;;;;;;7.67;5.00;;;;;45.71;19.72;101951.03;5043068;28;44812;-82
2022/08/09 09:13:36;;;;;;;;;4.25;4.00;;;;;45.79;19.16;101938.97;5037757;28;44745;-83
2022/08/09 09:16:03;;;;;;;;;5.00;5.00;;;;;45.98;19.24;101946.31;5038905;28;45657;-82
2022/08/09 09:18:28;;;;;;;;;5.00;5.00;;;;;46.29;18.89;101948.53;5032692;28;47417;-82
2022/08/09 09:20:55;;;;;;;;;4.33;4.33;;;;;46.60;18.83;101952.38;5032838;28;45426;-82
2022/08/09 09:23:41;;;;;;;;;5.00;3.33;;;;;46.68;18.96;101935.69;5031168;28;44754;-84
2022/08/09 09:26:07;;;;;;;;;5.00;5.00;;;;;46.73;18.59;101943.09;5031023;28;45318;-83
2022/08/09 09:28:34;;;;;;;;;5.00;4.00;;;;;46.56;18.46;101939.94;5032383;28;46154;-82
2022/08/09 09:31:02;;;;;;;;;4.67;4.00;;;;;46.42;18.74;101934.31;5046193;28;44770;-83
2022/08/09 09:33:34;;;;;;;;;4.00;4.00;;;;;46.37;18.73;101950.13;5035180;28;44750;-80
2022/08/09 09:36:02;;;;;;;;;5.00;5.00;;;;;46.57;18.73;101946.59;5049991;28;44895;-81
2022/08/09 09:38:45;;;;;;;;;3.33;3.33;;;;;46.81;18.56;101922.25;5035959;28;45368;-81
2022/08/09 09:41:22;;;;;;;;;5.33;4.67;;;;;47.44;18.05;101940.56;5042044;28;45402;-82
2022/08/09 09:43:49;;;;;;;;;7.00;6.00;;;;;47.64;17.48;101932.78;5055249;28;44738;-83
2022/08/09 09:46:14;;;;;;;;;4.33;4.33;;;;;47.05;17.65;101919.50;5032427;28;45251;-77
2022/08/09 09:48:58;;;;;;;;;3.33;3.33;;;;;46.99;18.28;101935.75;5026597;28;45367;-77
2022/08/09 09:51:29;;;;;;;;;4.00;4.00;;;;;47.06;17.96;101926.97;5027840;28;45417;-78
2022/08/09 09:54:13;;;;;;;;;5.00;3.00;;;;;46.76;18.47;101925.66;5027689;28;45545;-78
2022/08/09 09:56:41;;;;;;;;;4.00;4.00;;;;;46.65;18.65;101927.84;5024159;28;46491;-78
2022/08/09 09:59:08;;;;;;;;;5.00;5.00;;;;;46.62;17.86;101909.25;5023795;28;47254;-78
2022/08/09 10:01:34;;;;;;;;;5.33;4.33;;;;;46.77;18.20;101914.84;5027444;28;45327;-78
2022/08/09 10:04:00;;;;;;;;;4.67;4.00;;;;;46.52;18.35;101905.19;5034532;28;45516;-79
2022/08/09 10:06:27;;;;;;;;;4.33;4.00;;;;;46.52;18.00;101895.66;5028606;28;48213;-79
2022/08/09 10:09:00;;;;;;;;;7.00;5.00;;;;;46.96;18.29;101922.13;5046124;28;45738;-77
2022/08/09 10:11:28;;;;;;;;;5.00;5.00;;;;;46.88;17.94;101901.03;5033123;28;44765;-78
2022/08/09 10:13:54;;;;;;;;;7.33;5.67;;;;;46.86;17.28;101910.19;5028228;28;45596;-78
2022/08/09 10:16:49;;;;;;;;;5.00;5.00;;;;;46.79;17.92;101927.69;5037190;28;45527;-78
2022/08/09 10:19:15;;;;;;;;;6.00;6.00;;;;;46.95;17.93;101923.34;5013016;28;46009;-78
2022/08/09 10:21:48;;;;;;;;;5.00;4.00;;;;;46.94;18.07;101905.09;5039391;28;45824;-78
2022/08/09 10:24:17;;;;;;;;;4.33;4.33;;;;;47.12;17.51;101904.06;5035702;28;44923;-80
2022/08/09 10:26:45;;;;;;;;;4.00;4.00;;;;;46.82;17.82;101882.47;5038523;28;45281;-80
2022/08/09 10:29:12;;;;;;;;;5.67;4.67;;;;;46.86;17.42;101913.09;5040414;28;46338;-80
2022/08/09 10:31:41;;;;;;;;;5.00;5.00;;;;;46.64;18.22;101876.88;5025042;28;45493;-79
2022/08/09 10:34:11;;;;;;;;;5.00;5.00;;;;;47.07;17.93;101881.31;5025245;28;45419;-77
2022/08/09 10:36:44;;;;;;;;;4.00;4.00;;;;;47.35;17.20;101909.13;5025000;28;45906;-78
2022/08/09 10:39:09;;;;;;;;;5.67;5.67;;;;;46.91;17.26;101885.66;5024129;28;45452;-78
2022/08/09 10:41:35;;;;;;;;;6.67;6.33;;;;;46.98;17.49;101910.88;5024678;28;45400;-78
2022/08/09 10:44:02;;;;;;;;;5.00;5.00;;;;;46.95;17.08;101883.56;5026488;28;44883;-79
2022/08/09 10:46:37;;;;;;;;;4.00;4.00;;;;;47.30;17.11;101918.34;5024169;28;45769;-79
2022/08/09 10:49:19;;;;;;;;;6.67;6.67;;;;;47.02;17.26;101897.13;5025999;28;46227;-78
2022/08/09 10:51:44;;;;;;;;;5.00;5.00;;;;;47.00;17.17;101894.66;5024112;28;45375;-78
2022/08/09 10:54:12;;;;;;;;;7.00;3.67;;;;;47.09;17.46;101888.31;5024670;28;45303;-80
2022/08/09 10:56:41;;;;;;;;;4.00;4.00;;;;;46.75;17.35;101888.34;5014201;28;45499;-78
2022/08/09 10:59:21;;;;;;;;;5.33;5.33;;;;;46.42;17.86;101871.28;5034758;28;45504;-79
2022/08/09 11:01:48;;;;;;;;;4.67;4.67;;;;;46.27;17.23;101866.94;5032370;28;45934;-78
2022/08/09 11:04:34;;;;;;;;;4.33;4.33;;;;;45.95;17.65;101888.34;5019739;28;45528;-80
2022/08/09 11:07:02;;;;;;;;;6.67;5.33;;;;;45.93;18.13;101888.75;5024560;28;45507;-79
2022/08/09 11:09:36;;;;;;;;;6.00;6.00;;;;;45.59;17.95;101889.47;5024955;28;45424;-79
2022/08/09 11:12:23;;;;;;;;;4.67;4.33;;;;;45.01;17.94;101868.69;5042580;28;45339;-78
2022/08/09 11:14:54;;;;;;;;;7.67;6.00;;;;;44.93;18.81;101881.53;5024932;28;45412;-79
2022/08/09 11:17:33;;;;;;;;;5.00;5.00;;;;;44.20;18.70;101860.66;5022918;28;45863;-78
2022/08/09 11:20:08;;;;;;;;;6.00;6.00;;;;;43.68;19.57;101889.16;5026058;28;45577;-81
2022/08/09 11:22:43;;;;;;;;;6.67;5.00;;;;;43.12;19.60;101880.81;5040001;28;45630;-78
2022/08/09 11:25:16;;;;;;;;;8.67;7.67;;;;;42.24;20.25;101843.25;5027480;28;45773;-78
2022/08/09 11:27:44;;;;;;;;;7.33;7.00;;;;;41.47;20.83;101861.13;5035721;28;45560;-80
2022/08/09 11:30:11;;;;;;;;;5.67;5.67;;;;;40.97;21.37;101866.31;5027797;28;45545;-78